createdAt,value
2023-04-26T00:00:30.589Z,34.30
2023-04-26T00:01:30.609Z,34.28
2023-04-26T00:02:30.839Z,34.25
2023-04-26T00:03:30.784Z,34.28
2023-04-26T00:04:30.928Z,34.28
2023-04-26T00:05:30.837Z,34.32
2023-04-26T00:06:30.865Z,34.30
2023-04-26T00:07:30.927Z,34.31
2023-04-26T00:08:30.921Z,34.30
2023-04-26T00:09:30.990Z,34.30
2023-04-26T00:10:30.970Z,34.30
2023-04-26T00:11:30.995Z,34.30
2023-04-26T00:12:31.020Z,34.31
2023-04-26T00:13:31.092Z,34.32
2023-04-26T00:14:31.100Z,34.33
2023-04-26T00:15:31.182Z,34.31
2023-04-26T00:17:34.795Z,34.30
2023-04-26T00:18:34.732Z,34.33
2023-04-26T00:19:34.724Z,34.29
2023-04-26T00:20:34.734Z,34.33
2023-04-26T00:21:34.707Z,34.30
2023-04-26T00:22:34.684Z,34.29
2023-04-26T00:23:34.696Z,34.28
2023-04-26T00:24:34.668Z,34.31
2023-04-26T00:25:34.673Z,34.29
2023-04-26T00:26:34.663Z,34.29
2023-04-26T00:27:34.670Z,34.31
2023-04-26T00:28:34.645Z,34.30
2023-04-26T00:29:34.644Z,34.32
2023-04-26T00:30:34.634Z,34.33
2023-04-26T00:31:34.680Z,34.31
2023-04-26T00:32:34.672Z,34.31
2023-04-26T00:33:34.604Z,34.32
2023-04-26T00:34:34.597Z,34.31
2023-04-26T00:35:34.587Z,34.32
2023-04-26T00:36:34.582Z,34.34
2023-04-26T00:37:34.621Z,34.33
2023-04-26T00:38:34.560Z,34.30
2023-04-26T00:39:34.552Z,34.32
2023-04-26T00:40:34.556Z,34.32
2023-04-26T00:41:34.563Z,34.30
2023-04-26T00:42:34.552Z,34.30
2023-04-26T00:43:34.542Z,34.31
2023-04-26T00:44:34.786Z,34.31
2023-04-26T00:45:34.588Z,34.30
2023-04-26T00:46:34.521Z,34.26
2023-04-26T00:47:34.520Z,34.29
2023-04-26T00:48:34.545Z,34.28
2023-04-26T00:49:34.555Z,34.30
2023-04-26T00:50:34.536Z,34.30
2023-04-26T00:51:34.560Z,34.26
2023-04-26T00:52:34.593Z,34.29
2023-04-26T00:53:34.644Z,34.28
2023-04-26T00:54:34.671Z,34.30
2023-04-26T00:55:34.759Z,34.29
2023-04-26T00:56:34.753Z,34.30
2023-04-26T00:57:34.760Z,34.30
2023-04-26T00:58:34.848Z,34.29
2023-04-26T00:59:34.830Z,34.30
2023-04-26T01:00:34.832Z,34.29
2023-04-26T01:01:34.955Z,34.30
2023-04-26T01:02:35.052Z,34.29
2023-04-26T01:03:35.049Z,34.31
2023-04-26T01:04:35.018Z,34.30
2023-04-26T01:05:34.921Z,34.29
2023-04-26T01:06:34.939Z,34.29
2023-04-26T01:07:34.951Z,34.31
2023-04-26T01:08:35.013Z,34.31
2023-04-26T01:09:34.987Z,34.32
2023-04-26T01:10:34.988Z,34.31
2023-04-26T01:11:35.020Z,34.31
2023-04-26T01:12:35.006Z,34.29
2023-04-26T01:13:35.137Z,34.32
2023-04-26T01:14:35.044Z,34.31
2023-04-26T01:15:35.051Z,34.32
2023-04-26T01:16:35.059Z,34.33
2023-04-26T01:17:35.124Z,34.33
2023-04-26T01:18:35.118Z,34.34
2023-04-26T01:19:35.085Z,34.33
2023-04-26T01:20:35.100Z,34.34
2023-04-26T01:21:35.104Z,34.34
2023-04-26T01:22:35.131Z,34.35
2023-04-26T01:23:35.146Z,34.31
2023-04-26T01:24:35.112Z,34.33
2023-04-26T01:25:35.159Z,34.32
2023-04-26T01:26:35.171Z,34.32
2023-04-26T01:27:35.135Z,34.32
2023-04-26T01:28:35.144Z,34.34
2023-04-26T01:29:35.206Z,34.32
2023-04-26T01:30:35.131Z,34.33
2023-04-26T01:31:35.233Z,34.32
2023-04-26T01:32:35.142Z,34.32
2023-04-26T01:33:35.158Z,34.32
2023-04-26T01:34:35.160Z,34.33
2023-04-26T01:35:35.170Z,34.33
2023-04-26T01:36:35.190Z,34.33
2023-04-26T01:37:35.150Z,34.36
2023-04-26T01:38:35.203Z,34.31
2023-04-26T01:39:35.170Z,34.35
2023-04-26T01:40:35.164Z,34.33
2023-04-26T01:41:35.175Z,34.33
2023-04-26T01:42:35.209Z,34.35
2023-04-26T01:43:35.218Z,34.34
2023-04-26T01:44:35.164Z,34.34
2023-04-26T01:45:35.199Z,34.34
2023-04-26T01:46:35.183Z,34.34
2023-04-26T01:47:35.204Z,34.35
2023-04-26T01:48:35.206Z,34.37
2023-04-26T01:49:35.187Z,34.36
2023-04-26T01:50:35.180Z,34.34
2023-04-26T01:51:35.205Z,34.36
2023-04-26T01:52:35.175Z,34.36
2023-04-26T01:53:35.172Z,34.37
2023-04-26T01:54:35.176Z,34.33
2023-04-26T01:55:35.181Z,34.34
2023-04-26T01:56:35.196Z,34.35
2023-04-26T01:57:35.199Z,34.33
2023-04-26T01:58:35.160Z,34.37
2023-04-26T01:59:35.195Z,34.37
2023-04-26T02:00:35.163Z,34.37
2023-04-26T02:01:35.204Z,34.37
2023-04-26T02:02:35.198Z,34.37
2023-04-26T02:03:35.244Z,34.36
2023-04-26T02:04:35.178Z,34.35
2023-04-26T02:05:35.162Z,34.35
2023-04-26T02:06:35.160Z,34.36
2023-04-26T02:07:35.160Z,34.35
2023-04-26T02:08:35.145Z,34.35
2023-04-26T02:09:35.178Z,34.37
2023-04-26T02:10:35.138Z,34.36
2023-04-26T02:11:35.148Z,34.38
2023-04-26T02:12:35.157Z,34.36
2023-04-26T02:13:35.182Z,34.37
2023-04-26T02:14:35.177Z,34.35
2023-04-26T02:15:35.161Z,34.34
2023-04-26T02:16:35.251Z,34.36
2023-04-26T02:17:35.202Z,34.38
2023-04-26T02:18:35.209Z,34.40
2023-04-26T02:19:35.199Z,34.38
2023-04-26T02:20:35.144Z,34.40
2023-04-26T02:21:35.152Z,34.39
2023-04-26T02:22:35.177Z,34.37
2023-04-26T02:23:35.140Z,34.38
2023-04-26T02:24:35.188Z,34.37
2023-04-26T02:25:35.133Z,34.39
2023-04-26T02:26:35.146Z,34.38
2023-04-26T02:27:35.117Z,34.38
2023-04-26T02:28:35.112Z,34.38
2023-04-26T02:30:35.117Z,34.40
2023-04-26T02:31:35.105Z,34.39
2023-04-26T02:32:35.109Z,34.39
2023-04-26T02:33:35.078Z,34.38
2023-04-26T02:34:35.083Z,34.41
2023-04-26T02:35:35.050Z,34.40
2023-04-26T02:36:35.045Z,34.40
2023-04-26T02:37:35.050Z,34.37
2023-04-26T02:38:35.084Z,34.38
2023-04-26T02:39:35.026Z,34.35
2023-04-26T02:40:35.017Z,34.41
2023-04-26T02:41:35.008Z,34.41
2023-04-26T02:42:34.999Z,34.39
2023-04-26T02:43:35.024Z,34.40
2023-04-26T02:44:34.998Z,34.41
2023-04-26T02:45:35.002Z,34.42
2023-04-26T02:46:35.048Z,34.40
2023-04-26T02:47:34.979Z,34.39
2023-04-26T02:48:34.948Z,34.39
2023-04-26T02:49:34.939Z,34.38
2023-04-26T02:50:34.973Z,34.40
2023-04-26T02:51:34.940Z,34.39
2023-04-26T02:52:34.941Z,34.40
2023-04-26T02:53:34.954Z,34.43
2023-04-26T02:54:34.923Z,34.40
2023-04-26T02:55:34.913Z,34.40
2023-04-26T02:56:34.898Z,34.40
2023-04-26T02:57:34.894Z,34.43
2023-04-26T02:58:34.883Z,34.43
2023-04-26T02:59:34.894Z,34.44
2023-04-26T03:00:34.887Z,34.42
2023-04-26T03:01:34.983Z,34.39
2023-04-26T03:02:34.962Z,34.42
2023-04-26T03:03:35.007Z,34.41
2023-04-26T03:04:34.868Z,34.41
2023-04-26T03:05:34.853Z,34.41
2023-04-26T03:06:34.854Z,34.41
2023-04-26T03:07:34.821Z,34.43
2023-04-26T03:08:34.801Z,34.42
2023-04-26T03:09:34.791Z,34.43
2023-04-26T03:10:34.820Z,34.42
2023-04-26T03:11:34.844Z,34.43
2023-04-26T03:12:34.835Z,34.43
2023-04-26T03:13:34.773Z,34.43
2023-04-26T03:14:34.775Z,34.41
2023-04-26T03:15:34.741Z,34.43
2023-04-26T03:16:34.773Z,34.45
2023-04-26T03:17:34.827Z,34.43
2023-04-26T03:18:34.741Z,34.45
2023-04-26T03:19:34.715Z,34.45
2023-04-26T03:20:34.724Z,34.44
2023-04-26T03:21:34.710Z,34.44
2023-04-26T03:22:34.733Z,34.45
2023-04-26T03:23:34.704Z,34.44
2023-04-26T03:24:34.678Z,34.45
2023-04-26T03:25:34.713Z,34.45
2023-04-26T03:26:34.675Z,34.46
2023-04-26T03:27:34.682Z,34.44
2023-04-26T03:28:34.663Z,34.46
2023-04-26T03:29:34.640Z,34.46
2023-04-26T03:30:34.651Z,34.49
2023-04-26T03:31:34.672Z,34.46
2023-04-26T03:32:34.646Z,34.46
2023-04-26T03:33:34.622Z,34.46
2023-04-26T03:34:34.600Z,34.48
2023-04-26T03:35:34.620Z,34.47
2023-04-26T03:36:34.589Z,34.47
2023-04-26T03:37:34.582Z,34.46
2023-04-26T03:38:34.586Z,34.47
2023-04-26T03:39:34.559Z,34.47
2023-04-26T03:40:34.556Z,34.47
2023-04-26T03:41:34.577Z,34.47
2023-04-26T03:42:34.574Z,34.49
2023-04-26T03:43:34.539Z,34.49
2023-04-26T03:44:34.541Z,34.47
2023-04-26T03:45:34.551Z,34.49
2023-04-26T03:46:34.500Z,34.49
2023-04-26T03:47:34.541Z,34.49
2023-04-26T03:48:34.514Z,34.49
2023-04-26T03:49:34.509Z,34.50
2023-04-26T03:50:35.027Z,34.51
2023-04-26T03:51:34.487Z,34.51
2023-04-26T03:52:34.463Z,34.52
2023-04-26T03:53:34.454Z,34.52
2023-04-26T03:54:34.486Z,34.51
2023-04-26T03:55:34.449Z,34.50
2023-04-26T03:56:34.447Z,34.51
2023-04-26T03:57:34.448Z,34.53
2023-04-26T03:58:34.435Z,34.54
2023-04-26T03:59:34.450Z,34.52
2023-04-26T04:00:34.419Z,34.52
2023-04-26T04:01:34.430Z,34.52
2023-04-26T04:02:34.592Z,34.53
2023-04-26T04:03:34.824Z,34.52
2023-04-26T04:04:34.697Z,34.52
2023-04-26T04:05:34.459Z,34.52
2023-04-26T04:06:34.370Z,34.51
2023-04-26T04:07:34.366Z,34.52
2023-04-26T04:08:34.359Z,34.51
2023-04-26T04:09:34.338Z,34.54
2023-04-26T04:10:34.336Z,34.52
2023-04-26T04:11:34.339Z,34.54
2023-04-26T04:12:34.370Z,34.51
2023-04-26T04:13:34.354Z,34.54
2023-04-26T04:14:34.314Z,34.53
2023-04-26T04:15:34.321Z,34.53
2023-04-26T04:16:34.316Z,34.55
2023-04-26T04:17:35.519Z,34.51
2023-04-26T04:18:34.310Z,34.55
2023-04-26T04:19:34.293Z,34.50
2023-04-26T04:20:34.268Z,34.51
2023-04-26T04:21:34.289Z,34.52
2023-04-26T04:22:34.258Z,34.56
2023-04-26T04:23:34.244Z,34.53
2023-04-26T04:24:34.552Z,34.55
2023-04-26T04:25:34.237Z,34.54
2023-04-26T04:26:34.233Z,34.54
2023-04-26T04:27:34.244Z,34.53
2023-04-26T04:28:34.245Z,34.55
2023-04-26T04:29:34.237Z,34.56
2023-04-26T04:30:34.245Z,34.55
2023-04-26T04:31:34.273Z,34.55
2023-04-26T04:32:34.221Z,34.56
2023-04-26T04:33:34.201Z,34.56
2023-04-26T04:34:34.173Z,34.53
2023-04-26T04:35:34.302Z,34.56
2023-04-26T04:36:34.149Z,34.52
2023-04-26T04:37:34.139Z,34.56
2023-04-26T04:38:34.153Z,34.56
2023-04-26T04:39:34.133Z,34.52
2023-04-26T04:40:34.121Z,34.55
2023-04-26T04:41:34.118Z,34.54
2023-04-26T04:42:34.109Z,34.50
2023-04-26T04:43:34.115Z,34.49
2023-04-26T04:44:34.090Z,34.49
2023-04-26T04:45:34.099Z,34.48
2023-04-26T04:46:34.114Z,34.46
2023-04-26T04:47:34.154Z,34.46
2023-04-26T04:48:34.069Z,34.47
2023-04-26T04:49:34.074Z,34.45
2023-04-26T04:50:34.038Z,34.44
2023-04-26T04:51:34.030Z,34.45
2023-04-26T04:52:34.048Z,34.44
2023-04-26T04:53:34.020Z,34.45
2023-04-26T04:54:34.034Z,34.45
2023-04-26T04:55:34.027Z,34.45
2023-04-26T04:56:34.072Z,34.43
2023-04-26T04:57:33.998Z,34.44
2023-04-26T04:58:33.997Z,34.41
2023-04-26T04:59:33.991Z,34.42
2023-04-26T05:00:34.005Z,34.45
2023-04-26T05:01:33.982Z,34.40
2023-04-26T05:02:34.032Z,34.39
2023-04-26T05:03:34.088Z,34.40
2023-04-26T05:04:34.165Z,34.38
2023-04-26T05:05:33.965Z,34.38
2023-04-26T05:06:33.999Z,34.38
2023-04-26T05:07:33.908Z,34.37
2023-04-26T05:08:33.905Z,34.36
2023-04-26T05:09:33.909Z,34.33
2023-04-26T05:10:33.901Z,34.34
2023-04-26T05:11:33.885Z,34.35
2023-04-26T05:12:33.885Z,34.35
2023-04-26T05:13:33.871Z,34.34
2023-04-26T05:14:33.892Z,34.35
2023-04-26T05:15:33.909Z,34.37
2023-04-26T05:16:33.877Z,34.35
2023-04-26T05:17:33.871Z,34.33
2023-04-26T05:18:33.846Z,34.33
2023-04-26T05:19:33.835Z,34.31
2023-04-26T05:20:33.850Z,34.33
2023-04-26T05:21:33.813Z,34.30
2023-04-26T05:22:33.830Z,34.32
2023-04-26T05:23:33.827Z,34.29
2023-04-26T05:24:33.803Z,34.32
2023-04-26T05:25:33.809Z,34.38
2023-04-26T05:26:33.793Z,34.33
2023-04-26T05:27:33.778Z,34.36
2023-04-26T05:28:33.758Z,34.32
2023-04-26T05:29:33.792Z,34.26
2023-04-26T05:30:33.815Z,34.27
2023-04-26T05:31:33.822Z,34.25
2023-04-26T05:32:33.810Z,34.21
2023-04-26T05:33:33.753Z,34.15
2023-04-26T05:34:33.733Z,34.09
2023-04-26T05:35:34.014Z,34.10
2023-04-26T05:36:33.718Z,34.12
2023-04-26T05:37:33.708Z,34.55
2023-04-26T05:38:33.779Z,34.38
2023-04-26T05:39:33.689Z,34.58
2023-04-26T05:40:33.742Z,34.97
2023-04-26T05:41:33.683Z,35.32
2023-04-26T05:42:33.726Z,35.34
2023-04-26T05:43:33.661Z,35.65
2023-04-26T05:44:33.704Z,35.88
2023-04-26T05:45:34.095Z,35.94
2023-04-26T05:46:33.653Z,35.96
2023-04-26T05:47:33.706Z,35.95
2023-04-26T05:48:34.568Z,36.26
2023-04-26T05:49:33.637Z,36.29
2023-04-26T05:50:34.035Z,36.47
2023-04-26T05:51:33.615Z,36.58
2023-04-26T05:52:33.620Z,36.47
2023-04-26T05:53:33.586Z,36.72
2023-04-26T05:54:33.583Z,37.45
2023-04-26T05:55:33.605Z,36.87
2023-04-26T05:56:33.564Z,36.72
2023-04-26T05:57:33.669Z,36.57
2023-04-26T05:58:33.605Z,36.37
2023-04-26T05:59:33.553Z,36.27
2023-04-26T06:00:33.573Z,36.57
2023-04-26T06:01:33.555Z,36.99
2023-04-26T06:02:33.813Z,37.30
2023-04-26T06:03:33.964Z,37.42
2023-04-26T06:04:34.020Z,37.66
2023-04-26T06:05:33.795Z,37.65
2023-04-26T06:06:33.809Z,37.62
2023-04-26T06:07:33.857Z,37.79
2023-04-26T06:08:33.925Z,37.92
2023-04-26T06:09:33.955Z,38.17
2023-04-26T06:10:34.054Z,38.15
2023-04-26T06:11:34.049Z,37.91
2023-04-26T06:12:34.097Z,38.05
2023-04-26T06:13:34.107Z,38.16
2023-04-26T06:14:34.173Z,38.26
2023-04-26T06:15:35.027Z,38.30
2023-04-26T06:16:34.241Z,38.34
2023-04-26T06:17:34.274Z,38.54
2023-04-26T06:18:34.429Z,38.49
2023-04-26T06:19:34.322Z,38.66
2023-04-26T06:20:34.347Z,38.80
2023-04-26T06:21:34.413Z,38.88
2023-04-26T06:22:34.382Z,38.98
2023-04-26T06:23:34.353Z,38.97
2023-04-26T06:24:34.380Z,39.01
2023-04-26T06:25:34.531Z,39.22
2023-04-26T06:26:34.392Z,39.21
2023-04-26T06:27:34.433Z,39.27
2023-04-26T06:28:34.402Z,39.41
2023-04-26T06:29:34.450Z,39.81
2023-04-26T06:30:34.584Z,39.34
2023-04-26T06:31:34.481Z,39.34
2023-04-26T06:32:34.487Z,39.19
2023-04-26T06:33:34.510Z,37.82
2023-04-26T06:34:34.457Z,38.41
2023-04-26T06:35:35.086Z,38.60
2023-04-26T06:36:34.475Z,36.79
2023-04-26T06:37:34.508Z,35.91
2023-04-26T06:38:34.591Z,35.22
2023-04-26T06:39:34.661Z,35.56
2023-04-26T06:40:35.041Z,35.59
2023-04-26T06:41:34.729Z,35.76
2023-04-26T06:42:34.766Z,35.69
2023-04-26T06:43:34.689Z,35.69
2023-04-26T06:44:34.730Z,36.42
2023-04-26T06:45:34.780Z,36.43
2023-04-26T06:46:34.771Z,36.33
2023-04-26T06:47:34.775Z,36.36
2023-04-26T06:48:34.764Z,36.21
2023-04-26T06:49:34.760Z,36.08
2023-04-26T06:50:34.830Z,36.12
2023-04-26T06:51:34.875Z,35.89
2023-04-26T06:52:34.894Z,35.88
2023-04-26T06:53:34.949Z,35.66
2023-04-26T06:54:39.888Z,35.72
2023-04-26T06:55:36.084Z,35.61
2023-04-26T06:56:35.096Z,35.62
2023-04-26T06:57:34.978Z,35.41
2023-04-26T06:58:34.965Z,35.51
2023-04-26T06:59:35.588Z,35.25
2023-04-26T07:00:35.042Z,35.28
2023-04-26T07:01:34.996Z,35.36
2023-04-26T07:02:35.018Z,35.40
2023-04-26T07:03:35.120Z,35.27
2023-04-26T07:04:35.137Z,35.25
2023-04-26T07:05:35.091Z,35.21
2023-04-26T07:06:35.206Z,35.28
2023-04-26T07:07:35.174Z,35.20
2023-04-26T07:08:35.239Z,35.12
2023-04-26T07:09:35.309Z,35.13
2023-04-26T07:10:35.359Z,35.32
2023-04-26T07:11:35.425Z,35.12
2023-04-26T07:12:35.523Z,35.35
2023-04-26T07:13:35.549Z,35.32
2023-04-26T07:14:37.135Z,35.22
2023-04-26T07:15:35.589Z,35.30
2023-04-26T07:16:35.643Z,35.33
2023-04-26T07:17:35.628Z,35.08
2023-04-26T07:18:35.567Z,35.21
2023-04-26T07:19:35.552Z,35.14
2023-04-26T07:20:35.577Z,35.20
2023-04-26T07:21:35.531Z,34.68
2023-04-26T07:22:35.507Z,34.75
2023-04-26T07:23:35.515Z,34.77
2023-04-26T07:24:35.488Z,34.92
2023-04-26T07:25:35.605Z,34.54
2023-04-26T07:26:35.511Z,34.67
2023-04-26T07:27:35.484Z,34.97
2023-04-26T07:28:35.467Z,34.90
2023-04-26T07:29:35.455Z,35.03
2023-04-26T07:30:35.456Z,34.99
2023-04-26T07:31:35.445Z,34.95
2023-04-26T07:32:35.507Z,35.11
2023-04-26T07:33:35.643Z,35.37
2023-04-26T07:34:35.427Z,35.00
2023-04-26T07:35:35.641Z,34.90
2023-04-26T07:36:35.403Z,34.79
2023-04-26T07:37:35.394Z,34.94
2023-04-26T07:38:35.427Z,35.08
2023-04-26T07:39:35.411Z,34.79
2023-04-26T07:40:35.398Z,34.79
2023-04-26T07:41:35.415Z,34.72
2023-04-26T07:42:35.368Z,34.67
2023-04-26T07:43:35.380Z,35.08
2023-04-26T07:44:35.410Z,35.27
2023-04-26T07:45:35.400Z,35.32
2023-04-26T07:46:35.404Z,35.29
2023-04-26T07:47:35.377Z,35.24
2023-04-26T07:48:35.389Z,35.14
2023-04-26T07:49:35.350Z,35.09
2023-04-26T07:50:35.319Z,34.48
2023-04-26T07:51:35.317Z,34.66
2023-04-26T07:52:35.356Z,34.17
2023-04-26T07:53:35.312Z,34.35
2023-04-26T07:54:35.314Z,33.77
2023-04-26T07:55:35.379Z,34.27
2023-04-26T07:56:35.314Z,34.57
2023-04-26T07:57:35.406Z,34.60
2023-04-26T07:58:35.455Z,34.53
2023-04-26T07:59:35.544Z,34.46
2023-04-26T08:00:35.591Z,34.64
2023-04-26T08:01:35.625Z,34.59
2023-04-26T08:02:44.472Z,34.49
2023-04-26T08:03:36.824Z,34.60
2023-04-26T08:04:35.835Z,34.64
2023-04-26T08:05:35.817Z,34.44
2023-04-26T08:06:35.683Z,34.57
2023-04-26T08:07:35.631Z,34.11
2023-04-26T08:08:35.619Z,34.09
2023-04-26T08:09:35.626Z,34.33
2023-04-26T08:10:36.221Z,34.36
2023-04-26T08:11:35.651Z,34.24
2023-04-26T08:12:35.615Z,34.32
2023-04-26T08:13:35.604Z,34.22
2023-04-26T08:14:35.674Z,34.22
2023-04-26T08:15:35.662Z,34.39
2023-04-26T08:16:35.792Z,34.51
2023-04-26T08:17:35.774Z,34.31
2023-04-26T08:18:35.743Z,34.28
2023-04-26T08:19:35.800Z,33.99
2023-04-26T08:20:35.800Z,34.20
2023-04-26T08:21:35.850Z,33.79
2023-04-26T08:22:35.917Z,34.25
2023-04-26T08:23:35.905Z,34.13
2023-04-26T08:24:35.942Z,34.08
2023-04-26T08:25:36.108Z,34.20
2023-04-26T08:26:36.128Z,34.33
2023-04-26T08:27:36.101Z,34.40
2023-04-26T08:28:36.120Z,34.28
2023-04-26T08:29:36.164Z,34.29
2023-04-26T08:30:37.141Z,34.21
2023-04-26T08:31:36.329Z,34.06
2023-04-26T08:32:36.308Z,33.98
2023-04-26T08:33:36.345Z,33.91
2023-04-26T08:34:36.417Z,33.93
2023-04-26T08:35:36.461Z,33.85
2023-04-26T08:36:36.514Z,33.75
2023-04-26T08:37:36.610Z,33.71
2023-04-26T08:38:36.598Z,33.65
2023-04-26T08:39:36.631Z,33.53
2023-04-26T08:40:37.098Z,33.47
2023-04-26T08:41:36.760Z,33.75
2023-04-26T08:42:37.956Z,34.08
2023-04-26T08:43:36.870Z,34.48
2023-04-26T08:44:36.945Z,34.98
2023-04-26T08:45:37.108Z,34.83
2023-04-26T08:46:37.113Z,34.94
2023-04-26T08:47:37.137Z,35.09
2023-04-26T08:48:37.114Z,35.18
2023-04-26T08:49:37.177Z,35.33
2023-04-26T08:50:37.603Z,35.23
2023-04-26T08:51:37.264Z,35.39
2023-04-26T08:52:37.256Z,35.45
2023-04-26T08:53:37.221Z,35.41
2023-04-26T08:54:37.295Z,35.27
2023-04-26T08:55:37.244Z,35.26
2023-04-26T08:56:37.258Z,35.08
2023-04-26T08:57:37.267Z,35.11
2023-04-26T08:58:37.308Z,35.18
2023-04-26T08:59:37.281Z,35.22
2023-04-26T09:00:37.630Z,35.16
2023-04-26T09:01:37.315Z,35.17
2023-04-26T09:02:37.486Z,35.08
2023-04-26T09:03:37.472Z,35.04
2023-04-26T09:04:37.460Z,33.85
2023-04-26T09:05:37.590Z,34.10
2023-04-26T09:06:37.289Z,33.84
2023-04-26T09:07:37.372Z,34.41
2023-04-26T09:08:37.390Z,32.69
2023-04-26T09:09:37.458Z,31.87
2023-04-26T09:10:37.726Z,33.22
2023-04-26T09:11:37.531Z,33.71
2023-04-26T09:12:37.572Z,34.16
2023-04-26T09:13:37.642Z,33.98
2023-04-26T09:14:37.623Z,33.59
2023-04-26T09:15:37.740Z,33.83
2023-04-26T09:16:37.768Z,33.77
2023-04-26T09:17:37.923Z,33.60
2023-04-26T09:18:37.708Z,34.02
2023-04-26T09:19:37.768Z,33.43
2023-04-26T09:20:37.716Z,33.38
2023-04-26T09:21:37.743Z,33.45
2023-04-26T09:22:37.705Z,33.27
2023-04-26T09:23:37.742Z,32.18
2023-04-26T09:24:37.737Z,33.01
2023-04-26T09:25:38.126Z,33.29
2023-04-26T09:26:37.739Z,33.72
2023-04-26T09:27:37.790Z,33.75
2023-04-26T09:28:37.797Z,33.72
2023-04-26T09:29:37.832Z,31.86
2023-04-26T09:30:37.878Z,32.73
2023-04-26T09:31:37.927Z,34.13
2023-04-26T09:32:37.991Z,34.34
2023-04-26T09:33:37.908Z,34.15
2023-04-26T09:34:37.964Z,33.56
2023-04-26T09:35:37.999Z,33.73
2023-04-26T09:36:38.052Z,33.73
2023-04-26T09:37:50.735Z,33.09
2023-04-26T09:38:39.119Z,32.47
2023-04-26T09:39:38.033Z,32.51
2023-04-26T09:40:38.111Z,32.69
2023-04-26T09:41:38.014Z,32.04
2023-04-26T09:42:38.027Z,31.83
2023-04-26T09:43:38.007Z,31.80
2023-04-26T09:44:38.009Z,31.59
2023-04-26T09:45:37.962Z,31.27
2023-04-26T09:46:38.025Z,32.08
2023-04-26T09:47:37.984Z,30.66
2023-04-26T09:48:37.923Z,29.93
2023-04-26T09:49:37.932Z,30.66
2023-04-26T09:50:38.670Z,30.69
2023-04-26T09:51:37.949Z,30.79
2023-04-26T09:52:37.918Z,29.78
2023-04-26T09:53:37.916Z,30.00
2023-04-26T09:54:37.941Z,29.05
2023-04-26T09:55:37.894Z,29.33
2023-04-26T09:56:38.002Z,29.83
2023-04-26T09:57:38.064Z,29.51
2023-04-26T09:58:38.077Z,29.66
2023-04-26T09:59:38.136Z,30.03
2023-04-26T10:00:38.261Z,29.77
2023-04-26T10:01:38.350Z,29.64
2023-04-26T10:02:38.435Z,29.43
2023-04-26T10:03:38.697Z,29.85
2023-04-26T10:04:38.439Z,29.84
2023-04-26T10:05:38.481Z,29.78
2023-04-26T10:06:38.504Z,29.39
2023-04-26T10:07:38.597Z,29.61
2023-04-26T10:08:38.646Z,28.54
2023-04-26T10:09:38.680Z,28.79
2023-04-26T10:10:38.744Z,28.72
2023-04-26T10:11:39.344Z,28.38
2023-04-26T10:12:38.831Z,28.46
2023-04-26T10:13:38.910Z,28.94
2023-04-26T10:14:38.923Z,29.10
2023-04-26T10:15:38.987Z,28.81
2023-04-26T10:16:39.109Z,28.63
2023-04-26T10:17:39.105Z,28.90
2023-04-26T10:18:39.175Z,29.10
2023-04-26T10:19:39.200Z,28.76
2023-04-26T10:20:39.297Z,27.56
2023-04-26T10:21:39.345Z,27.60
2023-04-26T10:22:39.363Z,27.69
2023-04-26T10:23:39.430Z,28.21
2023-04-26T10:24:39.453Z,28.91
2023-04-26T10:25:39.573Z,28.70
2023-04-26T10:26:39.574Z,27.82
2023-04-26T10:27:39.624Z,28.12
2023-04-26T10:28:39.706Z,28.16
2023-04-26T10:29:39.770Z,28.37
2023-04-26T10:30:39.785Z,28.09
2023-04-26T10:31:40.133Z,28.21
2023-04-26T10:32:39.964Z,28.13
2023-04-26T10:33:39.997Z,28.21
2023-04-26T10:34:40.030Z,28.21
2023-04-26T10:35:40.077Z,28.25
2023-04-26T10:36:40.141Z,28.29
2023-04-26T10:37:40.226Z,28.31
2023-04-26T10:38:41.149Z,28.29
2023-04-26T10:39:40.185Z,28.36
2023-04-26T10:40:40.203Z,28.39
2023-04-26T10:41:40.637Z,28.39
2023-04-26T10:42:41.564Z,28.46
2023-04-26T10:43:40.120Z,28.44
2023-04-26T10:44:40.170Z,28.49
2023-04-26T10:45:40.200Z,28.51
2023-04-26T10:46:40.295Z,28.49
2023-04-26T10:47:40.124Z,28.51
2023-04-26T10:48:40.101Z,28.50
2023-04-26T10:49:40.136Z,28.53
2023-04-26T10:50:40.185Z,28.58
2023-04-26T10:51:40.228Z,28.59
2023-04-26T10:52:40.257Z,28.61
2023-04-26T10:53:40.282Z,28.67
2023-04-26T10:54:40.347Z,28.69
2023-04-26T10:55:40.384Z,28.75
2023-04-26T10:56:40.428Z,28.73
2023-04-26T10:57:40.481Z,28.75
2023-04-26T10:58:40.514Z,28.80
2023-04-26T10:59:53.894Z,28.84
2023-04-26T11:00:41.538Z,28.83
2023-04-26T11:01:40.596Z,28.88
2023-04-26T11:02:40.640Z,28.86
2023-04-26T11:03:40.861Z,28.91
2023-04-26T11:04:40.573Z,28.98
2023-04-26T11:05:40.508Z,28.99
2023-04-26T11:06:40.701Z,29.05
2023-04-26T11:07:40.483Z,29.04
2023-04-26T11:08:40.499Z,29.07
2023-04-26T11:09:40.486Z,29.10
2023-04-26T11:10:40.484Z,29.09
2023-04-26T11:11:40.500Z,29.11
2023-04-26T11:12:40.566Z,29.13
2023-04-26T11:13:40.578Z,29.13
2023-04-26T11:14:40.626Z,29.16
2023-04-26T11:15:40.761Z,29.18
2023-04-26T11:16:40.691Z,29.22
2023-04-26T11:17:40.732Z,29.26
2023-04-26T11:18:40.740Z,29.28
2023-04-26T11:19:40.760Z,29.29
2023-04-26T11:20:40.773Z,29.33
2023-04-26T11:21:41.146Z,29.38
2023-04-26T11:22:40.806Z,29.40
2023-04-26T11:23:40.873Z,29.39
2023-04-26T11:24:40.886Z,29.42
2023-04-26T11:25:40.921Z,29.44
2023-04-26T11:26:40.970Z,29.45
2023-04-26T11:27:40.958Z,29.53
2023-04-26T11:28:41.016Z,29.52
2023-04-26T11:29:41.011Z,29.54
2023-04-26T11:30:41.040Z,29.56
2023-04-26T11:31:41.132Z,29.57
2023-04-26T11:32:41.140Z,29.59
2023-04-26T11:33:41.145Z,29.60
2023-04-26T11:34:41.182Z,29.63
2023-04-26T11:35:41.204Z,29.68
2023-04-26T11:36:41.695Z,29.69
2023-04-26T11:37:41.296Z,29.69
2023-04-26T11:38:41.371Z,29.74
2023-04-26T11:39:41.324Z,29.78
2023-04-26T11:40:41.327Z,29.74
2023-04-26T11:41:41.684Z,29.75
2023-04-26T11:42:41.379Z,29.79
2023-04-26T11:43:41.434Z,29.82
2023-04-26T11:44:41.465Z,29.82
2023-04-26T11:45:41.498Z,29.83
2023-04-26T11:46:41.508Z,29.86
2023-04-26T11:47:41.531Z,29.88
2023-04-26T11:48:41.517Z,29.90
2023-04-26T11:49:41.574Z,29.90
2023-04-26T11:50:41.576Z,29.93
2023-04-26T11:51:41.607Z,29.93
2023-04-26T11:52:41.636Z,29.96
2023-04-26T11:53:41.620Z,29.96
2023-04-26T11:54:41.673Z,29.97
2023-04-26T11:55:41.686Z,29.99
2023-04-26T11:56:41.803Z,30.00
2023-04-26T11:57:41.722Z,30.01
2023-04-26T11:58:41.743Z,30.03
2023-04-26T11:59:41.792Z,30.00
2023-04-26T12:00:41.823Z,30.03
2023-04-26T12:01:41.869Z,30.00
2023-04-26T12:02:42.010Z,29.97
2023-04-26T12:03:41.962Z,30.02
2023-04-26T12:04:42.328Z,30.06
2023-04-26T12:05:41.881Z,30.03
2023-04-26T12:06:41.942Z,30.06
2023-04-26T12:07:41.913Z,30.06
2023-04-26T12:08:41.974Z,30.11
2023-04-26T12:09:41.957Z,30.13
2023-04-26T12:10:42.017Z,30.14
2023-04-26T12:11:42.018Z,30.15
2023-04-26T12:12:42.042Z,30.19
2023-04-26T12:13:42.062Z,30.19
2023-04-26T12:14:42.094Z,30.21
2023-04-26T12:15:42.113Z,30.23
2023-04-26T12:16:42.142Z,30.24
2023-04-26T12:17:42.725Z,30.25
2023-04-26T12:18:42.181Z,30.26
2023-04-26T12:19:42.187Z,30.26
2023-04-26T12:20:42.248Z,30.27
2023-04-26T12:21:42.439Z,30.29
2023-04-26T12:22:42.279Z,30.28
2023-04-26T12:23:42.305Z,30.30
2023-04-26T12:24:42.364Z,30.31
2023-04-26T12:25:42.385Z,30.33
2023-04-26T12:26:42.470Z,30.32
2023-04-26T12:27:42.430Z,30.32
2023-04-26T12:28:42.446Z,30.39
2023-04-26T12:29:42.483Z,30.38
2023-04-26T12:30:42.489Z,30.42
2023-04-26T12:31:42.611Z,30.42
2023-04-26T12:32:42.580Z,30.43
2023-04-26T12:33:42.626Z,30.44
2023-04-26T12:34:42.595Z,30.46
2023-04-26T12:35:42.611Z,30.46
2023-04-26T12:36:42.644Z,30.48
2023-04-26T12:37:42.676Z,30.49
2023-04-26T12:38:42.733Z,30.52
2023-04-26T12:39:42.723Z,30.53
2023-04-26T12:40:42.744Z,30.56
2023-04-26T12:41:42.802Z,30.57
2023-04-26T12:42:42.805Z,30.58
2023-04-26T12:43:42.853Z,30.57
2023-04-26T12:44:42.851Z,30.58
2023-04-26T12:45:42.909Z,30.61
2023-04-26T12:46:42.987Z,30.61
2023-04-26T12:47:43.038Z,30.61
2023-04-26T12:48:42.993Z,30.61
2023-04-26T12:49:43.006Z,30.61
2023-04-26T12:50:43.006Z,30.64
2023-04-26T12:51:43.116Z,30.64
2023-04-26T12:52:43.053Z,30.68
2023-04-26T12:53:43.082Z,30.70
2023-04-26T12:54:43.139Z,30.70